Aeroporto :
LOGIN :

Iscrizione | Disclaimer

   EN    FR    IT 

 










Sommario :    VFR   VFR Marginale   IFR   IFR Intensivo   IFR Molto Intensivo
Visibilità : 
Base nubi : 
>= 8 km
>= 3000ft
5 / 8 km
1000 / 3000 ft
1500m / 5 km
500 / 1000 ft
800 / 1500m
200 / 500 ft
< 800m
< 200 ft
Simboli :   Temporali  Nebbia  Neve Forte  Precipitazioni Forti  Vento > 20 kt
SIGMETs :   Varie  Temporali  Ghiacco  Turbolenza  Onda orograficha  Ceneri Vulcaniche







- Altitudine del aeroporto : 1090 ft
- Codice IATA : CFE
- Carte del aeroporto


LFLC - Clermont-Ferrand Auvergne

ULTIMO METAR :
  • 130400Z AUTO 22002KT 9999 -RA FEW011 SCT020 BKN050 11/10 Q1025 TEMPO 3000 RA

METARs OBSOLETI :
  • 130330Z AUTO 11004KT 9999 -RA SCT019/// OVC052/// ///TCU 11/10 Q1025 TEMPO 3000 RA BKN025
  • 130300Z AUTO 10007KT 9999 FEW013/// BKN052/// OVC064/// ///TCU 11/10 Q1024 TEMPO 3000 RA BKN025
  • 130230Z AUTO 12006KT 9999 -RA FEW004/// BKN049/// OVC062/// ///TCU 11/10 Q1024 TEMPO 3000 RA BKN025
  • 130200Z AUTO 06006KT 6000 RA FEW007/// OVC047/// ///TCU 11/10 Q1024 TEMPO 4000 RA BKN020
  • 130130Z AUTO 05006KT 6000 RA FEW006/// BKN045/// OVC052/// ///TCU 12/10 Q1023 TEMPO 4000 RA BKN020

TAF TAF LFLC
Valido dal 13 a 03 ore il 14 a 03 ore UTC


130200Z 1303/1403 VRB02KT 9999 BKN045
TEMPO 1303/1310 3000 RA BKN025
TEMPO 1310/1318 BKN014
BECMG 1320/1322 CAVOK
PROB40 1400/1403 4000 BR
ATIS : +33 4 73 62 74 38
Nessun NOTAM noto per questo aeroporto.



MetMap, La meteo Aeronautica in un colpo d'occhio ! - Copyright ORBIFLY Dicembre 2007 - Disclaimer

ORBIFLY MET'MAP TEAM :

Programmazione e sviluppo : Alexandra Zaïnal
Concezione e sviluppo : Baudouin d'Aumeries
Co-Programmazione e sviluppo : Marc-Olivier Méhu
Supporto tecnico e logistico : Manuel Goepfert
Aiuto per la traduzione : Arnaldo La Scala

Contatto : metmap@orbifly.com




FONTI E CREDITI :

   NOAA